Time;durP1;ratioP1;P1;durP2;ratioP2;P2;SDS_P1;SDS_P2;PMS_P1;PMS_P2;Temp;Humidity;BMP_temperature;BMP_pressure;BME280_temperature;BME280_humidity;BME280_pressure;Samples;Min_cycle;Max_cycle;Signal;HPM_P1;HPM_P2
2023/04/05 00:01:27;;;;;;;4.90;3.50;;;2.20;99.90;;;;;;5076288;28;20089;-72
2023/04/05 00:03:57;;;;;;;6.50;3.45;;;2.30;99.90;;;;;;5094702;28;20044;-73
2023/04/05 00:06:27;;;;;;;6.78;3.60;;;2.10;99.90;;;;;;5094151;28;20123;-72
2023/04/05 00:08:54;;;;;;;5.63;3.58;;;2.00;99.90;;;;;;5093751;28;20457;-73
2023/04/05 00:11:24;;;;;;;5.72;3.20;;;2.10;99.90;;;;;;5094085;28;20044;-73
2023/04/05 00:13:50;;;;;;;6.78;4.05;;;2.10;99.90;;;;;;5075897;28;20127;-73
2023/04/05 00:16:17;;;;;;;8.23;3.65;;;2.00;99.90;;;;;;5076088;28;20151;-73
2023/04/05 00:18:48;;;;;;;6.63;3.05;;;2.00;99.90;;;;;;5094003;28;20499;-73
2023/04/05 00:21:20;;;;;;;5.43;3.15;;;2.00;99.90;;;;;;5093896;28;20044;-73
2023/04/05 00:23:50;;;;;;;6.97;3.33;;;2.00;99.90;;;;;;5093573;28;20063;-73
2023/04/05 00:26:17;;;;;;;4.25;2.60;;;1.90;99.90;;;;;;5094369;28;20386;-73
2023/04/05 00:28:42;;;;;;;5.45;2.50;;;1.70;99.90;;;;;;5075586;28;20378;-75
2023/04/05 00:31:09;;;;;;;5.35;2.85;;;1.60;99.90;;;;;;5093590;28;20059;-79
2023/04/05 00:33:35;;;;;;;6.22;4.00;;;1.50;99.90;;;;;;5093667;28;20052;-73
2023/04/05 00:36:11;;;;;;;6.30;3.70;;;1.50;99.90;;;;;;5093848;28;20366;-78
2023/04/05 00:38:37;;;;;;;;;;;1.50;99.90;;;;;;5094614;28;20040;-72
2023/04/05 00:41:03;;;;;;;7.70;4.73;;;1.50;99.90;;;;;;5093665;28;20006;-73
2023/04/05 00:43:29;;;;;;;5.63;3.40;;;1.60;99.90;;;;;;5059535;28;20371;-73
2023/04/05 00:45:55;;;;;;;5.60;2.95;;;1.50;99.90;;;;;;5093481;28;20036;-73
2023/04/05 00:48:21;;;;;;;6.55;3.90;;;1.60;99.90;;;;;;5093384;28;20466;-72
2023/04/05 00:50:49;;;;;;;6.57;3.53;;;1.50;99.90;;;;;;5093783;28;20346;-73
2023/04/05 00:53:17;;;;;;;4.38;2.97;;;1.60;99.90;;;;;;5093179;28;20048;-73
2023/04/05 00:55:43;;;;;;;7.22;3.90;;;1.60;99.90;;;;;;5093449;28;20048;-73
2023/04/05 00:58:09;;;;;;;7.88;3.30;;;1.50;99.90;;;;;;5093381;28;20040;-73
2023/04/05 01:00:37;;;;;;;5.22;3.30;;;1.40;99.90;;;;;;5093357;28;20131;-72
2023/04/05 01:03:05;;;;;;;6.95;3.63;;;1.90;99.90;;;;;;5093275;28;20047;-73
2023/04/05 01:05:37;;;;;;;6.78;3.70;;;1.30;99.90;;;;;;5093566;28;20052;-73
2023/04/05 01:08:23;;;;;;;5.88;3.65;;;1.20;99.90;;;;;;5093280;28;20040;-73
2023/04/05 01:10:54;;;;;;;6.78;3.70;;;1.20;99.90;;;;;;5076146;28;20515;-74
2023/04/05 01:13:20;;;;;;;6.45;4.10;;;1.20;99.90;;;;;;5093873;28;20457;-75
2023/04/05 01:15:45;;;;;;;6.35;3.60;;;1.20;99.90;;;;;;5093275;28;20048;-72
2023/04/05 01:18:13;;;;;;;6.07;2.97;;;1.10;99.90;;;;;;5093751;28;20048;-74
2023/04/05 01:20:51;;;;;;;4.63;3.22;;;1.10;99.90;;;;;;5093286;28;20131;-73
2023/04/05 01:23:44;;;;;;;5.68;3.20;;;1.10;99.90;;;;;;5093526;28;20063;-74
2023/04/05 01:26:30;;;;;;;6.07;3.22;;;1.10;99.90;;;;;;5093781;28;20044;-74
2023/04/05 01:29:04;;;;;;;6.35;3.35;;;1.10;99.90;;;;;;5093190;28;20044;-73
2023/04/05 01:31:41;;;;;;;6.97;4.03;;;1.10;99.90;;;;;;5093135;28;20097;-73
2023/04/05 01:34:18;;;;;;;;;;;1.10;99.90;;;;;;5094402;28;20423;-76
2023/04/05 01:36:49;;;;;;;6.40;3.90;;;1.10;99.90;;;;;;5093447;28;20302;-75
2023/04/05 01:39:19;;;;;;;8.93;4.85;;;1.50;99.90;;;;;;5092831;28;20473;-73
2023/04/05 01:41:44;;;;;;;10.00;5.88;;;1.10;99.90;;;;;;5093047;28;20101;-73
2023/04/05 01:44:10;;;;;;;6.80;5.38;;;1.10;99.90;;;;;;5092945;28;20044;-74
2023/04/05 01:46:36;;;;;;;9.43;5.18;;;1.20;99.90;;;;;;5093014;28;20135;-73
2023/04/05 01:49:02;;;;;;;6.63;4.60;;;1.00;99.90;;;;;;5092905;28;20082;-73
2023/04/05 01:51:27;;;;;;;5.75;3.83;;;1.00;99.90;;;;;;5092943;28;20159;-73
2023/04/05 01:53:53;;;;;;;6.50;3.90;;;1.10;99.90;;;;;;5093783;28;20040;-73
2023/04/05 01:56:19;;;;;;;7.10;4.00;;;1.00;99.90;;;;;;5075011;28;20047;-73
2023/04/05 01:58:45;;;;;;;6.45;3.83;;;1.00;99.90;;;;;;5092932;28;20055;-73
2023/04/05 02:01:11;;;;;;;5.45;3.58;;;0.90;99.90;;;;;;5092672;28;20048;-73
2023/04/05 02:03:36;;;;;;;5.00;3.05;;;1.60;99.90;;;;;;5095469;28;20093;-75
2023/04/05 02:06:03;;;;;;;7.15;3.72;;;0.80;99.90;;;;;;5096546;28;20043;-73
2023/04/05 02:08:29;;;;;;;7.68;3.85;;;0.80;99.90;;;;;;5078465;28;20055;-73
2023/04/05 02:10:55;;;;;;;6.10;3.53;;;0.70;99.90;;;;;;5096422;28;20052;-73
2023/04/05 02:13:25;;;;;;;8.70;4.47;;;1.90;99.90;;;;;;5078277;28;20044;-74
2023/04/05 02:15:50;;;;;;;7.63;4.63;;;0.70;99.90;;;;;;5079180;28;20044;-74
2023/04/05 02:18:29;;;;;;;6.07;4.20;;;0.70;99.90;;;;;;5096770;28;20039;-73
2023/04/05 02:21:01;;;;;;;8.13;4.20;;;0.70;99.90;;;;;;5096299;28;20040;-73
2023/04/05 02:23:29;;;;;;;5.47;3.55;;;0.70;99.90;;;;;;5096240;28;20048;-73
2023/04/05 02:25:55;;;;;;;7.50;4.40;;;0.60;99.90;;;;;;5096119;28;20417;-72
2023/04/05 02:28:21;;;;;;;6.18;3.83;;;0.60;99.90;;;;;;5096033;28;20102;-73
2023/04/05 02:30:47;;;;;;;5.15;3.17;;;0.50;99.90;;;;;;5096478;28;20127;-73
2023/04/05 02:33:12;;;;;;;6.88;3.30;;;0.50;99.90;;;;;;5095518;28;20062;-74
2023/04/05 02:35:38;;;;;;;5.35;3.00;;;0.60;99.90;;;;;;5096473;28;20048;-72
2023/04/05 02:38:04;;;;;;;6.18;3.38;;;0.50;99.90;;;;;;5096454;28;20377;-73
2023/04/05 02:40:30;;;;;;;4.93;3.22;;;0.40;99.90;;;;;;5077951;28;20476;-73
2023/04/05 02:42:55;;;;;;;5.10;2.72;;;0.40;99.90;;;;;;5061378;28;20052;-73
2023/04/05 02:45:21;;;;;;;4.85;3.03;;;0.30;99.90;;;;;;5096248;28;20079;-76
2023/04/05 02:47:47;;;;;;;6.78;3.85;;;0.30;99.90;;;;;;5078542;28;20041;-73
2023/04/05 02:50:13;;;;;;;6.03;3.97;;;0.20;99.90;;;;;;5077803;28;20043;-73
2023/04/05 02:52:39;;;;;;;7.85;4.60;;;0.30;99.90;;;;;;5096134;28;20044;-74
2023/04/05 02:55:06;;;;;;;6.95;3.78;;;0.20;99.90;;;;;;5078057;28;20040;-73
2023/04/05 02:57:31;;;;;;;8.27;3.80;;;0.20;99.90;;;;;;5095555;28;20040;-72
2023/04/05 02:59:57;;;;;;;7.20;4.00;;;0.20;99.90;;;;;;5078197;28;20402;-73
2023/04/05 03:02:23;;;;;;;11.38;4.57;;;0.30;99.90;;;;;;5095049;28;20052;-75
2023/04/05 03:04:52;;;;;;;5.63;3.58;;;0.40;99.90;;;;;;5095332;28;20075;-72
2023/04/05 03:07:17;;;;;;;6.30;4.40;;;0.30;99.90;;;;;;5095806;28;20047;-74
2023/04/05 03:09:45;;;;;;;6.90;4.35;;;0.30;99.90;;;;;;5096064;28;20044;-72
2023/04/05 03:12:11;;;;;;;7.38;4.10;;;0.30;99.90;;;;;;5095192;28;20047;-73
2023/04/05 03:14:38;;;;;;;7.03;4.20;;;0.20;99.90;;;;;;5094421;28;20056;-72
2023/04/05 03:17:03;;;;;;;7.38;4.22;;;0.20;99.90;;;;;;5095143;28;20048;-73
2023/04/05 03:19:29;;;;;;;8.50;4.13;;;0.20;99.90;;;;;;5095042;28;20127;-72
2023/04/05 03:21:56;;;;;;;6.53;3.60;;;0.20;99.90;;;;;;5095806;28;20044;-72
2023/04/05 03:24:22;;;;;;;5.30;3.20;;;-0.50;99.90;;;;;;5094742;28;20064;-73
2023/04/05 03:26:48;;;;;;;6.18;3.65;;;0.00;99.90;;;;;;5095556;28;20101;-72
2023/04/05 03:29:15;;;;;;;6.20;3.78;;;0.40;99.90;;;;;;5094739;28;20040;-74
2023/04/05 03:31:41;;;;;;;5.50;3.15;;;0.50;99.90;;;;;;5095415;28;20078;-72
2023/04/05 03:34:06;;;;;;;5.80;3.50;;;-0.20;99.90;;;;;;5094686;28;20461;-72
2023/04/05 03:36:40;;;;;;;8.05;4.47;;;0.50;99.90;;;;;;5094456;28;20052;-72
2023/04/05 03:39:11;;;;;;;5.60;3.78;;;-0.20;99.90;;;;;;5094788;28;20495;-72
2023/04/05 03:41:38;;;;;;;6.00;3.60;;;-0.30;99.90;;;;;;5094684;28;20048;-74
2023/04/05 03:44:04;;;;;;;6.10;3.95;;;-0.40;99.90;;;;;;5077085;28;20455;-72
2023/04/05 03:46:30;;;;;;;5.57;3.55;;;-0.40;99.90;;;;;;5095297;28;20080;-74
2023/04/05 03:48:57;;;;;;;7.40;3.97;;;-0.40;99.90;;;;;;5094443;28;20047;-72
2023/04/05 03:51:23;;;;;;;6.15;3.80;;;-0.30;99.90;;;;;;5076632;28;20048;-71
2023/04/05 03:53:50;;;;;;;5.90;3.10;;;-0.40;99.90;;;;;;5077426;28;20342;-71
2023/04/05 03:56:16;;;;;;;7.10;4.35;;;-0.40;99.90;;;;;;5094477;28;20052;-73
2023/04/05 03:58:43;;;;;;;5.72;3.83;;;-0.10;99.90;;;;;;5094840;28;20044;-72
2023/04/05 04:01:09;;;;;;;7.28;4.30;;;-0.30;99.90;;;;;;5076389;28;20500;-72
2023/04/05 04:03:36;;;;;;;7.18;3.72;;;-0.40;99.90;;;;;;5094178;28;20048;-72
2023/04/05 04:06:03;;;;;;;7.50;3.92;;;0.40;99.90;;;;;;5094030;28;20052;-72
2023/04/05 04:08:28;;;;;;;6.47;3.40;;;-0.50;99.90;;;;;;5094097;28;20052;-74
2023/04/05 04:10:54;;;;;;;5.25;3.55;;;0.30;99.90;;;;;;5094876;28;20044;-72
2023/04/05 04:13:20;;;;;;;6.32;3.60;;;-0.50;99.90;;;;;;5094088;28;20051;-71
2023/04/05 04:15:46;;;;;;;6.50;3.80;;;0.10;99.90;;;;;;5094312;28;20058;-72
2023/04/05 04:18:12;;;;;;;7.07;4.05;;;-0.60;99.90;;;;;;5094135;28;20127;-72
2023/04/05 04:20:38;;;;;;;6.30;4.30;;;-0.70;99.90;;;;;;5076084;28;20079;-76
2023/04/05 04:23:05;;;;;;;7.38;4.10;;;-0.70;99.90;;;;;;5093871;28;20048;-73
2023/04/05 04:25:31;;;;;;;7.05;4.25;;;-0.70;99.90;;;;;;5094222;28;20451;-73
2023/04/05 04:27:57;;;;;;;8.25;4.15;;;-0.70;99.90;;;;;;5094178;28;20036;-72
2023/04/05 04:30:23;;;;;;;6.30;3.83;;;-0.70;99.90;;;;;;5093792;28;20048;-72
2023/04/05 04:32:58;;;;;;;7.95;4.25;;;-0.70;99.90;;;;;;5093644;28;20135;-72
2023/04/05 04:35:25;;;;;;;8.18;3.88;;;-0.70;99.90;;;;;;5093776;28;20090;-74
2023/04/05 04:37:58;;;;;;;7.13;4.30;;;-0.70;99.90;;;;;;5075918;28;20052;-72
2023/04/05 04:40:28;;;;;;;7.43;4.30;;;-0.70;99.90;;;;;;5094478;28;20079;-72
2023/04/05 04:42:57;;;;;;;10.68;5.20;;;-0.60;99.90;;;;;;5094354;28;20385;-71
2023/04/05 04:45:23;;;;;;;9.23;5.22;;;-0.20;99.90;;;;;;5093510;28;20113;-72
2023/04/05 04:47:52;;;;;;;8.25;4.93;;;-0.60;99.90;;;;;;5075388;28;20048;-72
2023/04/05 04:50:19;;;;;;;6.28;4.72;;;-0.60;99.90;;;;;;5075343;28;20533;-73
2023/04/05 04:52:46;;;;;;;8.23;4.68;;;-0.60;99.90;;;;;;5093415;28;20059;-71
2023/04/05 04:55:15;;;;;;;8.07;4.85;;;-0.60;99.90;;;;;;5093139;28;20083;-71
2023/04/05 04:57:41;;;;;;;11.00;5.75;;;-0.60;99.90;;;;;;5093510;28;20044;-79
2023/04/05 05:00:14;;;;;;;8.32;5.55;;;-0.70;99.90;;;;;;5094082;28;20123;-71
2023/04/05 05:02:42;;;;;;;10.98;5.97;;;-0.70;99.90;;;;;;5093367;28;20063;-72
2023/04/05 05:05:10;;;;;;;9.70;5.10;;;-0.70;99.90;;;;;;5093355;28;20090;-75
2023/04/05 05:07:37;;;;;;;8.95;4.95;;;-0.70;99.90;;;;;;5093369;28;20059;-71
2023/04/05 05:10:03;;;;;;;11.07;5.25;;;-0.70;99.90;;;;;;5075508;28;20059;-71
2023/04/05 05:12:30;;;;;;;8.50;4.90;;;-0.70;99.90;;;;;;5093242;28;20071;-73
2023/04/05 05:14:56;;;;;;;7.22;4.88;;;-0.70;99.90;;;;;;5075441;28;20521;-71
2023/04/05 05:17:25;;;;;;;8.10;5.05;;;-0.70;99.90;;;;;;5076013;28;20052;-72
2023/04/05 05:19:51;;;;;;;7.95;5.07;;;-0.70;99.90;;;;;;5075623;28;20040;-72
2023/04/05 05:22:17;;;;;;;6.93;4.28;;;-0.80;99.90;;;;;;5075644;28;20047;-74
2023/04/05 05:24:43;;;;;;;8.18;4.85;;;-0.40;99.90;;;;;;5093178;28;20095;-72
2023/04/05 05:27:09;;;;;;;8.32;4.78;;;-0.30;99.90;;;;;;5093166;28;20059;-72
2023/04/05 05:29:35;;;;;;;8.90;5.18;;;-0.70;99.90;;;;;;5093074;28;20461;-72
2023/04/05 05:32:01;;;;;;;8.68;4.80;;;-0.70;99.90;;;;;;5075178;28;20040;-72
2023/04/05 05:34:26;;;;;;;11.50;5.50;;;-0.60;99.90;;;;;;5093563;28;20048;-77
2023/04/05 05:36:54;;;;;;;8.25;4.60;;;-0.70;99.90;;;;;;5075325;28;20044;-74
2023/04/05 05:39:20;;;;;;;8.27;4.70;;;-0.70;99.90;;;;;;5078639;28;20040;-74
2023/04/05 05:41:46;;;;;;;9.63;4.32;;;-0.60;99.90;;;;;;5078988;28;20055;-72
2023/04/05 05:44:12;;;;;;;10.70;7.88;;;-0.60;99.90;;;;;;5097376;28;20096;-74
2023/04/05 05:46:38;;;;;;;8.52;5.68;;;-0.50;99.90;;;;;;5078993;28;20052;-73
2023/04/05 05:49:04;;;;;;;9.25;4.82;;;0.20;99.90;;;;;;5096677;28;20044;-72
2023/04/05 05:51:31;;;;;;;8.13;5.22;;;0.10;99.90;;;;;;5096404;28;20192;-72
2023/04/05 05:53:57;;;;;;;12.18;4.90;;;-0.40;99.90;;;;;;5096746;28;20055;-72
2023/04/05 05:56:23;;;;;;;8.48;4.28;;;0.10;99.90;;;;;;5079501;28;20040;-74
2023/04/05 05:58:48;;;;;;;7.57;4.60;;;-0.30;99.90;;;;;;5078546;28;20083;-74
2023/04/05 06:01:14;;;;;;;8.90;4.68;;;-0.20;99.90;;;;;;5096602;28;20043;-71
2023/04/05 06:03:40;;;;;;;9.02;5.38;;;0.30;99.90;;;;;;5096056;28;20055;-72
2023/04/05 06:06:07;;;;;;;8.55;4.90;;;-0.10;99.90;;;;;;5096538;28;20040;-64
2023/04/05 06:08:33;;;;;;;9.38;4.88;;;-0.10;99.90;;;;;;5096368;28;20087;-65
2023/04/05 06:10:59;;;;;;;9.55;5.32;;;0.00;99.90;;;;;;5078531;28;20059;-65
2023/04/05 06:13:25;;;;;;;9.18;5.85;;;0.10;99.90;;;;;;5096335;28;20052;-65
2023/04/05 06:15:50;;;;;;;9.50;5.75;;;0.20;99.90;;;;;;5096307;28;20522;-65
2023/04/05 06:18:16;;;;;;;8.82;5.68;;;0.20;99.90;;;;;;5096237;28;20036;-65
2023/04/05 06:20:43;;;;;;;8.80;5.47;;;0.30;99.90;;;;;;5096239;28;20055;-64
2023/04/05 06:23:12;;;;;;;8.95;6.32;;;0.70;99.90;;;;;;5096119;28;20156;-65
2023/04/05 06:25:39;;;;;;;9.77;5.68;;;0.60;99.90;;;;;;5096452;28;20052;-64
2023/04/05 06:28:06;;;;;;;11.43;6.07;;;0.60;99.90;;;;;;5095955;28;20093;-64
2023/04/05 06:30:32;;;;;;;9.38;6.05;;;0.70;99.90;;;;;;5096050;28;20090;-64
2023/04/05 06:32:59;;;;;;;8.85;5.53;;;0.80;99.90;;;;;;5096434;28;20048;-64
2023/04/05 06:35:25;;;;;;;10.05;5.95;;;1.00;99.90;;;;;;5095867;28;20098;-64
2023/04/05 06:37:51;;;;;;;10.15;6.63;;;1.60;99.90;;;;;;5096065;28;20392;-64
2023/04/05 06:40:17;;;;;;;10.60;6.25;;;1.10;99.90;;;;;;5095815;28;20047;-65
2023/04/05 06:42:43;;;;;;;9.38;6.03;;;1.20;99.90;;;;;;5096615;28;20369;-65
2023/04/05 06:45:10;;;;;;;8.70;6.45;;;1.30;99.90;;;;;;5077829;28;20048;-64
2023/04/05 06:47:37;;;;;;;11.98;6.85;;;1.40;99.90;;;;;;5096402;28;20423;-64
2023/04/05 06:50:04;;;;;;;11.20;6.72;;;1.80;99.90;;;;;;5094510;28;20109;-65
2023/04/05 06:52:32;;;;;;;8.85;6.15;;;1.60;99.90;;;;;;5077724;28;20066;-64
2023/04/05 06:54:57;;;;;;;8.70;6.22;;;1.90;99.90;;;;;;5095555;28;20044;-64
2023/04/05 06:57:23;;;;;;;9.32;6.50;;;1.80;99.90;;;;;;5095155;28;20138;-78
2023/04/05 06:59:51;;;;;;;8.02;6.25;;;2.40;99.90;;;;;;5095418;28;20048;-74
2023/04/05 07:02:16;;;;;;;10.52;6.32;;;2.00;99.90;;;;;;5095368;28;20044;-75
2023/04/05 07:04:42;;;;;;;8.57;6.75;;;2.10;99.90;;;;;;5095412;28;20097;-74
2023/04/05 07:07:08;;;;;;;8.93;6.32;;;2.30;99.90;;;;;;5095389;28;20110;-76
2023/04/05 07:09:35;;;;;;;10.45;6.57;;;2.30;99.90;;;;;;5095283;28;20093;-73
2023/04/05 07:12:03;;;;;;;10.68;8.25;;;2.40;99.90;;;;;;5095172;28;20086;-74
2023/04/05 07:14:29;;;;;;;10.18;7.07;;;2.40;99.90;;;;;;5095985;28;20400;-73
2023/04/05 07:16:55;;;;;;;10.60;7.20;;;2.60;99.90;;;;;;5095149;28;20051;-73
2023/04/05 07:19:21;;;;;;;11.52;7.03;;;3.10;99.90;;;;;;5095155;28;20040;-75
2023/04/05 07:21:47;;;;;;;11.45;7.13;;;2.70;99.90;;;;;;5094734;28;20404;-73
2023/04/05 07:24:13;;;;;;;10.05;6.75;;;2.80;99.90;;;;;;5094849;28;20403;-77
2023/04/05 07:26:39;;;;;;;9.40;7.18;;;2.90;99.90;;;;;;5094517;28;20059;-72
2023/04/05 07:29:06;;;;;;;9.15;6.38;;;3.30;99.90;;;;;;5094837;28;20048;-72
2023/04/05 07:31:31;;;;;;;10.90;7.32;;;3.10;99.90;;;;;;5095534;28;20070;-75
2023/04/05 07:33:59;;;;;;;9.82;7.00;;;3.20;99.90;;;;;;5094724;28;20560;-73
2023/04/05 07:36:26;;;;;;;11.70;7.28;;;3.40;99.90;;;;;;5094804;28;20135;-73
2023/04/05 07:38:53;;;;;;;10.00;7.95;;;3.50;99.90;;;;;;5094639;28;20044;-72
2023/04/05 07:41:19;;;;;;;11.20;6.38;;;3.60;99.90;;;;;;5094759;28;20059;-73
2023/04/05 07:43:45;;;;;;;10.02;6.78;;;3.70;99.90;;;;;;5077471;28;20056;-72
2023/04/05 07:46:11;;;;;;;10.55;6.60;;;3.90;99.90;;;;;;5076512;28;20059;-74
2023/04/05 07:48:37;;;;;;;9.23;6.55;;;3.90;99.90;;;;;;5094470;28;20036;-74
2023/04/05 07:51:08;;;;;;;8.45;6.47;;;4.00;99.90;;;;;;5076541;28;20044;-74
2023/04/05 07:53:35;;;;;;;8.82;6.15;;;4.10;99.90;;;;;;5076911;28;20097;-73
2023/04/05 07:56:09;;;;;;;9.85;6.53;;;4.20;99.90;;;;;;5094449;28;20044;-74
2023/04/05 07:58:39;;;;;;;8.55;6.15;;;4.30;99.90;;;;;;5077249;28;20055;-73
2023/04/05 08:01:05;;;;;;;9.65;6.57;;;4.40;99.90;;;;;;5094325;28;20048;-74
2023/04/05 08:03:33;;;;;;;12.35;6.13;;;4.50;99.90;;;;;;5093841;28;20492;-74
2023/04/05 08:06:10;;;;;;;7.85;5.20;;;4.60;99.90;;;;;;5094675;28;20400;-77
2023/04/05 08:08:36;;;;;;;7.93;5.60;;;4.70;99.90;;;;;;5076144;28;20089;-74
2023/04/05 08:11:05;;;;;;;6.95;5.10;;;4.90;99.90;;;;;;5094573;28;20105;-73
2023/04/05 08:13:32;;;;;;;8.95;5.68;;;5.00;99.90;;;;;;5094119;28;20036;-73
2023/04/05 08:16:00;;;;;;;7.20;5.25;;;5.20;99.90;;;;;;5094184;28;20044;-72
2023/04/05 08:18:25;;;;;;;6.82;5.00;;;5.30;99.90;;;;;;5094720;28;20044;-74
2023/04/05 08:20:55;;;;;;;6.57;4.80;;;5.40;99.90;;;;;;5093542;28;20432;-77
2023/04/05 08:23:21;;;;;;;7.63;4.95;;;5.50;99.90;;;;;;5093485;28;20048;-76
2023/04/05 08:25:47;;;;;;;7.45;4.47;;;5.60;99.90;;;;;;5093949;28;20063;-77
2023/04/05 08:28:13;;;;;;;6.90;4.75;;;5.80;99.90;;;;;;5075841;28;20051;-77
2023/04/05 08:30:39;;;;;;;7.68;4.50;;;5.90;99.90;;;;;;5076707;28;20449;-78
2023/04/05 08:33:06;;;;;;;7.20;4.47;;;6.00;99.90;;;;;;5094052;28;20134;-76
2023/04/05 08:35:32;;;;;;;5.82;4.32;;;6.20;99.90;;;;;;5075690;28;20051;-76
2023/04/05 08:37:57;;;;;;;7.10;5.05;;;6.30;99.90;;;;;;5093501;28;20085;-77
2023/04/05 08:40:43;;;;;;;6.30;4.25;;;6.40;99.90;;;;;;5075905;28;20477;-79
2023/04/05 08:43:22;;;;;;;9.30;5.10;;;6.50;99.90;;;;;;5093969;28;20067;-81
2023/04/05 08:45:50;;;;;;;5.30;4.03;;;6.70;99.90;;;;;;5093551;28;20056;-67
2023/04/05 08:48:16;;;;;;;6.35;3.30;;;6.80;99.90;;;;;;5093459;28;20054;-66
2023/04/05 08:50:50;;;;;;;4.85;3.50;;;7.00;99.90;;;;;;5059073;28;20134;-66
2023/04/05 08:53:16;;;;;;;5.90;3.67;;;7.10;99.90;;;;;;5093154;28;20055;-67
2023/04/05 08:55:42;;;;;;;5.38;3.25;;;7.30;99.90;;;;;;5075947;28;20086;-68
2023/04/05 08:58:12;;;;;;;6.13;3.47;;;7.30;99.90;;;;;;5093370;28;20044;-67
2023/04/05 09:00:40;;;;;;;6.18;4.18;;;7.50;99.90;;;;;;5075887;28;20544;-66
2023/04/05 09:03:07;;;;;;;5.55;3.63;;;7.60;99.90;;;;;;5093271;28;20105;-66
2023/04/05 09:05:36;;;;;;;4.32;3.15;;;7.60;99.90;;;;;;5093091;28;20139;-65
2023/04/05 09:08:02;;;;;;;6.22;3.50;;;7.70;99.90;;;;;;5093196;28;20051;-66
2023/04/05 09:10:28;;;;;;;4.43;2.55;;;7.90;99.90;;;;;;5093319;28;20048;-66
2023/04/05 09:12:55;;;;;;;5.60;2.63;;;8.00;99.90;;;;;;5094904;28;20440;-65
2023/04/05 09:15:23;;;;;;;3.95;2.20;;;8.20;99.90;;;;;;5097371;28;20048;-67
2023/04/05 09:17:49;;;;;;;4.00;2.60;;;8.20;99.90;;;;;;5097619;28;20052;-66
2023/04/05 09:20:15;;;;;;;4.50;2.40;;;8.30;99.90;;;;;;5097845;28;20040;-67
2023/04/05 09:22:45;;;;;;;4.80;2.20;;;8.40;99.90;;;;;;5097325;28;20050;-67
2023/04/05 09:25:31;;;;;;;5.43;2.15;;;8.50;99.90;;;;;;5097349;28;20556;-66
2023/04/05 09:27:57;;;;;;;3.55;2.22;;;8.60;99.90;;;;;;5097713;28;20052;-66
2023/04/05 09:30:24;;;;;;;3.35;2.00;;;8.70;99.90;;;;;;5079011;28;20462;-67
2023/04/05 09:32:55;;;;;;;5.80;3.25;;;8.80;99.90;;;;;;5062575;28;20051;-72
2023/04/05 09:35:23;;;;;;;4.18;2.60;;;9.00;99.90;;;;;;5078925;28;20503;-67
2023/04/05 09:37:52;;;;;;;3.83;2.22;;;9.10;99.90;;;;;;5096980;28;20109;-67
2023/04/05 09:40:18;;;;;;;3.05;2.10;;;9.20;99.90;;;;;;5097499;28;20542;-66
2023/04/05 09:42:45;;;;;;;4.00;2.10;;;9.20;99.90;;;;;;5096943;28;20491;-65
2023/04/05 09:45:11;;;;;;;3.70;2.35;;;9.30;99.90;;;;;;5096905;28;20044;-66
2023/04/05 09:47:37;;;;;;;4.00;2.40;;;9.40;99.90;;;;;;5079647;28;20369;-66
2023/04/05 09:50:17;;;;;;;4.10;2.60;;;9.50;99.90;;;;;;5096633;28;20040;-66
2023/04/05 09:52:43;;;;;;;3.78;2.45;;;9.60;99.90;;;;;;5096780;28;20044;-67
2023/04/05 09:55:10;;;;;;;5.25;2.97;;;9.70;99.90;;;;;;5096644;28;20097;-65
2023/04/05 09:57:37;;;;;;;3.22;2.40;;;9.90;99.90;;;;;;5097173;28;20044;-66
2023/04/05 10:00:17;;;;;;;6.05;3.10;;;10.00;99.90;;;;;;5096352;28;20621;-69
2023/04/05 10:02:42;;;;;;;4.88;2.80;;;10.10;99.90;;;;;;5096478;28;20040;-66
2023/04/05 10:05:12;;;;;;;5.07;2.63;;;10.30;99.90;;;;;;5097205;28;20063;-66
2023/04/05 10:07:39;;;;;;;4.10;2.65;;;10.30;99.90;;;;;;5096749;28;20043;-67
2023/04/05 10:10:06;;;;;;;4.22;2.95;;;10.40;99.90;;;;;;5096413;28;20047;-67
2023/04/05 10:12:32;;;;;;;4.07;2.92;;;10.50;99.90;;;;;;5096321;28;20484;-65
2023/04/05 10:14:58;;;;;;;4.55;3.05;;;10.60;99.90;;;;;;5096851;28;20097;-66
2023/04/05 10:17:30;;;;;;;4.43;2.80;;;10.60;99.90;;;;;;5078260;28;20393;-69
2023/04/05 10:19:58;;;;;;;5.10;2.90;;;10.70;99.90;;;;;;5096179;28;20040;-67
2023/04/05 10:22:47;;;;;;;4.00;2.78;;;10.60;99.90;;;;;;5096092;28;20051;-66
2023/04/05 10:25:30;;;;;;;4.30;2.90;;;10.70;99.90;;;;;;5083004;28;20349;-66
2023/04/05 10:28:21;;;;;;;3.75;2.70;;;10.90;99.90;;;;;;5096016;28;20052;-65
2023/04/05 10:30:50;;;;;;;5.78;2.95;;;11.10;99.90;;;;;;5096562;28;20044;-67
2023/04/05 10:33:21;;;;;;;6.28;3.40;;;11.30;99.90;;;;;;5096617;28;20052;-66
2023/04/05 10:36:25;;;;;;;4.72;2.83;;;11.50;99.90;;;;;;5096124;28;20499;-67
2023/04/05 10:39:06;;;;;;;5.90;2.85;;;11.60;99.90;;;;;;5095886;28;20036;-66
2023/04/05 10:41:38;;;;;;;4.35;2.50;;;11.60;99.90;;;;;;5096368;28;20106;-66
2023/04/05 10:44:06;;;;;;;3.53;2.63;;;11.90;99.90;;;;;;5095772;28;20048;-66
2023/04/05 10:46:33;;;;;;;4.20;2.85;;;12.20;99.90;;;;;;5095736;28;20093;-66
2023/04/05 10:49:05;;;;;;;3.85;2.85;;;12.30;99.90;;;;;;5096377;28;20091;-66
2023/04/05 10:51:33;;;;;;;4.78;3.10;;;12.40;99.90;;;;;;5096256;28;20089;-66
2023/04/05 10:53:59;;;;;;;4.65;2.90;;;12.50;99.90;;;;;;5095624;28;20130;-66
2023/04/05 10:56:25;;;;;;;5.20;2.88;;;12.60;99.90;;;;;;5096080;28;20040;-66
2023/04/05 10:58:52;;;;;;;3.88;2.70;;;12.80;99.90;;;;;;5096011;28;20032;-66
2023/04/05 11:01:20;;;;;;;4.90;3.00;;;12.90;99.90;;;;;;5096244;28;20112;-66
2023/04/05 11:03:51;;;;;;;4.00;3.10;;;13.20;99.90;;;;;;5095329;28;20052;-66
2023/04/05 11:06:19;;;;;;;5.00;2.88;;;13.30;99.90;;;;;;5095610;28;20388;-66
2023/04/05 11:08:47;;;;;;;5.95;2.88;;;13.40;99.90;;;;;;5076681;28;20044;-66
2023/04/05 11:11:16;;;;;;;3.85;2.95;;;13.60;99.90;;;;;;5095209;28;20096;-66
2023/04/05 11:13:52;;;;;;;4.00;2.92;;;13.60;99.90;;;;;;5095191;28;20054;-65
2023/04/05 11:16:18;;;;;;;3.63;2.78;;;13.60;99.90;;;;;;5095820;28;20055;-66
2023/04/05 11:18:49;;;;;;;3.83;2.58;;;13.60;99.90;;;;;;5077501;28;20109;-67
2023/04/05 11:21:24;;;;;;;4.55;2.80;;;13.80;99.90;;;;;;5095367;28;20113;-66
2023/04/05 11:24:02;;;;;;;4.13;2.65;;;13.80;99.90;;;;;;5094759;28;20040;-67
2023/04/05 11:26:53;;;;;;;5.78;3.20;;;13.80;99.90;;;;;;5095483;28;20062;-66
2023/04/05 11:29:38;;;;;;;3.03;2.53;;;14.00;99.90;;;;;;5095566;28;20048;-66
2023/04/05 11:32:12;;;;;;;4.78;2.63;;;13.90;99.90;;;;;;5095115;28;20048;-66
2023/04/05 11:34:41;;;;;;;3.38;2.50;;;13.70;99.90;;;;;;5077708;28;20362;-65
2023/04/05 11:37:07;;;;;;;3.55;2.45;;;13.60;99.90;;;;;;5094350;28;20440;-66
2023/04/05 11:39:33;;;;;;;4.43;2.53;;;13.70;99.90;;;;;;5094714;28;20036;-65
2023/04/05 11:42:05;;;;;;;5.35;2.80;;;13.80;99.90;;;;;;5095408;28;20052;-66
2023/04/05 11:44:47;;;;;;;4.28;2.60;;;14.00;99.90;;;;;;5094625;28;20431;-66
2023/04/05 11:47:15;;;;;;;3.90;2.65;;;14.30;99.90;;;;;;5095067;28;20362;-66
2023/04/05 11:49:41;;;;;;;3.22;2.55;;;14.30;99.90;;;;;;5094884;28;20040;-66
2023/04/05 11:52:15;;;;;;;4.00;3.03;;;14.30;99.90;;;;;;5094311;28;20430;-65
2023/04/05 11:54:45;;;;;;;4.30;2.60;;;14.40;99.90;;;;;;5094350;28;20047;-66
2023/04/05 11:57:21;;;;;;;4.18;2.70;;;14.30;99.90;;;;;;5094313;28;20051;-66
2023/04/05 11:59:50;;;;;;;3.17;2.50;;;14.40;99.90;;;;;;5094173;28;20075;-65
2023/04/05 12:02:16;;;;;;;5.82;3.00;;;14.70;99.90;;;;;;5094102;28;20459;-66
2023/04/05 12:04:42;;;;;;;3.20;2.47;;;15.00;99.90;;;;;;5093984;28;20040;-66
2023/04/05 12:07:16;;;;;;;4.63;2.65;;;15.30;99.90;;;;;;5094387;28;20078;-66
2023/04/05 12:10:03;;;;;;;3.40;2.53;;;15.70;99.90;;;;;;5093969;28;20048;-65
2023/04/05 12:12:32;;;;;;;;;;;16.10;99.90;;;;;;5095061;28;20048;-66
2023/04/05 12:14:59;;;;;;;4.43;2.63;;;16.30;99.90;;;;;;5093975;28;19919;-66
2023/04/05 12:17:45;;;;;;;3.60;2.50;;;16.10;99.90;;;;;;5093970;28;20048;-65
2023/04/05 12:20:12;;;;;;;4.15;2.70;;;16.40;99.90;;;;;;5094152;28;20439;-66
2023/04/05 12:22:40;;;;;;;4.93;2.70;;;16.60;99.90;;;;;;5075822;28;20052;-66
2023/04/05 12:25:07;;;;;;;4.18;2.67;;;16.90;99.90;;;;;;5075520;28;20056;-65
2023/04/05 12:27:33;;;;;;;3.42;2.50;;;16.90;99.90;;;;;;5093802;28;20052;-66
2023/04/05 12:30:05;;;;;;;4.72;2.65;;;16.60;99.90;;;;;;5093607;28;20500;-66
2023/04/05 12:32:46;;;;;;;3.17;2.35;;;16.40;99.90;;;;;;5093754;28;20044;-65
2023/04/05 12:35:33;;;;;;;5.13;2.83;;;16.80;99.90;;;;;;5093702;28;20071;-66
2023/04/05 12:38:02;;;;;;;4.40;2.50;;;17.30;99.90;;;;;;5093747;28;20055;-65
2023/04/05 12:40:29;;;;;;;4.05;2.30;;;17.60;99.90;;;;;;5093592;28;20512;-68
2023/04/05 12:43:05;;;;;;;4.20;2.40;;;18.00;99.90;;;;;;5076001;28;20056;-67
2023/04/05 12:45:38;;;;;;;4.30;2.80;;;18.40;99.90;;;;;;5094153;28;20191;-66
2023/04/05 12:48:25;;;;;;;3.75;2.50;;;18.50;99.90;;;;;;5093409;28;20044;-67
2023/04/05 12:50:51;;;;;;;2.92;2.28;;;18.70;99.90;;;;;;5094077;28;20042;-66
2023/04/05 12:53:22;;;;;;;4.07;2.50;;;19.00;99.90;;;;;;5093411;28;20035;-63
2023/04/05 12:55:54;;;;;;;4.93;2.70;;;19.20;99.90;;;;;;5093480;28;20044;-64
2023/04/05 12:58:21;;;;;;;3.75;2.47;;;19.40;99.90;;;;;;5093634;28;20047;-65
2023/04/05 13:00:47;;;;;;;5.40;2.58;;;19.60;99.90;;;;;;5058607;28;20131;-67